Time;durP1;ratioP1;P1;durP2;ratioP2;P2;SDS_P1;SDS_P2;PMS_P1;PMS_P2;Temp;Humidity;BMP_temperature;BMP_pressure;BME280_temperature;BME280_humidity;BME280_pressure;Samples;Min_cycle;Max_cycle;Signal;HPM_P1;HPM_P2
2023/11/30 00:01:55;;;;;;;9.60;3.37;;;;;1.80;95899.00;;;;4980116;28;20442;-70
2023/11/30 00:04:44;;;;;;;6.43;2.40;;;;;1.90;95892.00;;;;4986747;28;20442;-70
2023/11/30 00:07:34;;;;;;;6.77;2.50;;;;;1.90;95890.00;;;;4990084;28;20456;-70
2023/11/30 00:10:23;;;;;;;11.47;4.37;;;;;1.80;95886.00;;;;4989335;28;20839;-69
2023/11/30 00:13:12;;;;;;;14.03;4.70;;;;;1.80;95899.00;;;;4985813;28;20458;-70
2023/11/30 00:16:01;;;;;;;5.97;2.23;;;;;1.70;95886.00;;;;4983884;28;20459;-69
2023/11/30 00:18:50;;;;;;;9.73;3.53;;;;;1.70;95890.00;;;;4990976;28;20449;-70
2023/11/30 00:21:39;;;;;;;9.57;3.50;;;;;1.60;95866.00;;;;4984798;28;20436;-69
2023/11/30 00:24:29;;;;;;;5.93;2.23;;;;;1.50;95888.00;;;;4985598;28;20423;-70
2023/11/30 00:27:18;;;;;;;12.63;4.43;;;;;1.40;95887.00;;;;4977262;28;20434;-70
2023/11/30 00:30:09;;;;;;;21.77;7.07;;;;;1.50;95893.00;;;;4972839;28;20461;-69
2023/11/30 00:32:58;;;;;;;6.00;2.40;;;;;1.50;95881.00;;;;4987827;28;20434;-70
2023/11/30 00:35:47;;;;;;;6.77;2.47;;;;;1.40;95883.00;;;;4988338;28;20449;-70
2023/11/30 00:38:36;;;;;;;7.90;2.83;;;;;1.40;95887.00;;;;4985398;28;20430;-70
2023/11/30 00:41:26;;;;;;;7.83;2.87;;;;;1.40;95881.00;;;;4986998;28;20438;-70
2023/11/30 00:44:15;;;;;;;10.80;3.70;;;;;1.40;95880.00;;;;4981173;28;20441;-70
2023/11/30 00:47:04;;;;;;;5.50;2.10;;;;;1.40;95888.00;;;;4988723;28;20552;-70
2023/11/30 00:49:53;;;;;;;6.87;2.60;;;;;1.40;95881.00;;;;4983786;28;20851;-70
2023/11/30 00:52:42;;;;;;;7.93;3.00;;;;;1.20;95883.00;;;;4986344;28;20454;-69
2023/11/30 00:55:31;;;;;;;6.77;2.43;;;;;1.20;95885.00;;;;4975302;28;20470;-69
2023/11/30 00:58:21;;;;;;;11.00;4.03;;;;;1.00;95889.00;;;;4980221;28;20426;-69
2023/11/30 01:01:10;;;;;;;12.87;4.53;;;;;1.00;95881.00;;;;4982923;28;20426;-70
2023/11/30 01:03:59;;;;;;;5.80;2.43;;;;;1.30;95852.00;;;;4985869;28;20466;-69
2023/11/30 01:06:49;;;;;;;4.87;1.93;;;;;1.30;95864.00;;;;4984744;28;20474;-70
2023/11/30 01:09:39;;;;;;;5.60;2.17;;;;;1.30;95873.00;;;;4986399;28;20426;-70
2023/11/30 01:12:28;;;;;;;5.67;2.00;;;;;0.90;95885.00;;;;4982050;28;20477;-69
2023/11/30 01:15:18;;;;;;;14.23;4.97;;;;;0.80;95880.00;;;;4980298;28;20450;-70
2023/11/30 01:18:07;;;;;;;9.73;3.43;;;;;1.20;95863.00;;;;4988388;28;20442;-70
2023/11/30 01:20:56;;;;;;;7.10;2.60;;;;;1.30;95865.00;;;;4988182;28;20427;-69
2023/11/30 01:23:45;;;;;;;7.67;2.90;;;;;1.40;95862.00;;;;4981601;28;20446;-70
2023/11/30 01:26:34;;;;;;;9.27;3.33;;;;;1.50;95857.00;;;;4974241;28;20554;-69
2023/11/30 01:29:23;;;;;;;9.80;3.70;;;;;1.50;95850.00;;;;4981109;28;20434;-70
2023/11/30 01:32:13;;;;;;;9.77;3.37;;;;;1.50;95849.00;;;;4987947;28;20879;-70
2023/11/30 01:35:03;;;;;;;7.77;2.87;;;;;1.20;95844.00;;;;4988875;28;20430;-69
2023/11/30 01:37:52;;;;;;;7.23;2.60;;;;;1.30;95850.00;;;;4987195;28;20422;-69
2023/11/30 01:40:41;;;;;;;10.60;3.70;;;;;1.30;95850.00;;;;4986276;28;20461;-70
2023/11/30 01:43:31;;;;;;;6.47;2.47;;;;;1.40;95850.00;;;;4989359;28;20437;-69
2023/11/30 01:46:20;;;;;;;11.27;3.97;;;;;1.40;95838.00;;;;4980759;28;20462;-70
2023/11/30 01:49:11;;;;;;;8.00;2.90;;;;;1.30;95828.00;;;;4983486;28;20422;-70
2023/11/30 01:52:00;;;;;;;8.23;3.20;;;;;1.50;95825.00;;;;4976359;28;20473;-70
2023/11/30 01:54:49;;;;;;;7.43;2.77;;;;;1.50;95823.00;;;;4983811;28;20434;-69
2023/11/30 01:57:38;;;;;;;6.57;2.57;;;;;1.50;95824.00;;;;4983664;28;20435;-69
2023/11/30 02:00:28;;;;;;;6.47;2.53;;;;;1.40;95827.00;;;;4975988;28;20414;-70
2023/11/30 02:03:18;;;;;;;8.50;3.13;;;;;1.60;95826.00;;;;4978380;28;20443;-69
2023/11/30 02:06:09;;;;;;;7.23;2.80;;;;;1.40;95823.00;;;;4974179;28;20863;-70
2023/11/30 02:08:58;;;;;;;7.30;2.77;;;;;1.50;95822.00;;;;4976717;28;20454;-69
2023/11/30 02:11:48;;;;;;;10.10;3.60;;;;;1.50;95823.00;;;;4980438;28;20462;-70
2023/11/30 02:14:36;;;;;;;7.80;2.87;;;;;1.40;95818.00;;;;4984040;28;20441;-70
2023/11/30 02:17:25;;;;;;;6.07;2.43;;;;;1.50;95817.00;;;;4988419;28;20441;-70
2023/11/30 02:20:15;;;;;;;14.73;5.13;;;;;1.40;95822.00;;;;4987750;28;20985;-69
2023/11/30 02:23:05;;;;;;;5.87;2.30;;;;;1.20;95808.00;;;;4985779;28;20950;-70
2023/11/30 02:25:54;;;;;;;6.30;2.40;;;;;1.00;95806.00;;;;4982342;28;20474;-69
2023/11/30 02:28:43;;;;;;;11.57;4.13;;;;;1.20;95796.00;;;;4976198;28;21150;-69
2023/11/30 02:31:32;;;;;;;10.17;3.80;;;;;1.30;95788.00;;;;4987495;28;20857;-70
2023/11/30 02:34:21;;;;;;;8.87;3.37;;;;;1.30;95781.00;;;;4979560;28;20430;-70
2023/11/30 02:37:10;;;;;;;10.57;3.77;;;;;1.30;95768.00;;;;4991874;28;20438;-70
2023/11/30 02:40:00;;;;;;;5.53;2.20;;;;;1.20;95764.00;;;;4991213;28;20461;-68
2023/11/30 02:42:49;;;;;;;5.97;2.37;;;;;1.10;95747.00;;;;4986770;28;20414;-70
2023/11/30 02:45:38;;;;;;;7.80;2.83;;;;;1.00;95746.00;;;;4991760;28;20450;-69
2023/11/30 02:48:27;;;;;;;6.37;2.50;;;;;0.90;95745.00;;;;4988500;28;20431;-69
2023/11/30 02:51:16;;;;;;;10.60;3.77;;;;;0.90;95743.00;;;;4976373;28;20430;-69
2023/11/30 02:54:05;;;;;;;7.87;3.03;;;;;1.00;95744.00;;;;4989392;28;20829;-69
2023/11/30 02:56:55;;;;;;;5.00;2.17;;;;;1.10;95738.00;;;;4982327;28;20456;-69
2023/11/30 02:59:44;;;;;;;6.93;2.80;;;;;0.70;95737.00;;;;4989232;28;20437;-69
2023/11/30 03:02:33;;;;;;;6.07;2.50;;;;;0.70;95728.00;;;;4985489;28;20802;-70
2023/11/30 03:05:22;;;;;;;11.00;4.20;;;;;0.50;95725.00;;;;4988347;28;20461;-69
2023/11/30 03:08:11;;;;;;;12.07;4.30;;;;;0.50;95734.00;;;;4989583;28;20437;-69
2023/11/30 03:11:00;;;;;;;13.67;4.87;;;;;0.60;95724.00;;;;4989707;28;20438;-69
2023/11/30 03:13:51;;;;;;;6.67;2.57;;;;;0.30;95725.00;;;;4983247;28;20464;-70
2023/11/30 03:16:40;;;;;;;9.13;3.30;;;;;0.20;95719.00;;;;4989014;28;20460;-69
2023/11/30 03:19:28;;;;;;;6.80;2.50;;;;;0.50;95711.00;;;;4991014;28;20426;-70
2023/11/30 03:22:17;;;;;;;10.23;3.73;;;;;0.60;95699.00;;;;4989039;28;20437;-70
2023/11/30 03:25:07;;;;;;;14.97;4.90;;;;;0.70;95706.00;;;;4986630;28;20450;-69
2023/11/30 03:27:56;;;;;;;6.97;2.57;;;;;0.70;95694.00;;;;4984873;28;20449;-69
2023/11/30 03:30:47;;;;;;;5.67;2.13;;;;;0.70;95682.00;;;;4985077;28;20426;-70
2023/11/30 03:33:35;;;;;;;8.07;2.90;;;;;0.70;95675.00;;;;4980152;28;20466;-70
2023/11/30 03:36:24;;;;;;;14.50;5.07;;;;;0.10;95674.00;;;;4983239;28;20447;-69
2023/11/30 03:39:13;;;;;;;14.23;4.77;;;;;0.10;95678.00;;;;4989916;28;20961;-70
2023/11/30 03:42:02;;;;;;;7.87;2.93;;;;;0.20;95671.00;;;;4985027;28;20807;-70
2023/11/30 03:44:51;;;;;;;8.00;2.93;;;;;0.60;95673.00;;;;4984270;28;20433;-69
2023/11/30 03:47:42;;;;;;;6.63;2.47;;;;;0.70;95673.00;;;;4984233;28;20950;-69
2023/11/30 03:50:31;;;;;;;7.03;2.57;;;;;0.40;95672.00;;;;4979794;28;20419;-70
2023/11/30 03:53:20;;;;;;;12.53;4.37;;;;;0.20;95690.00;;;;4990090;28;20848;-70
2023/11/30 03:56:09;;;;;;;9.20;3.27;;;;;0.50;95662.00;;;;4987117;28;20454;-69
2023/11/30 03:58:58;;;;;;;5.10;1.97;;;;;0.60;95655.00;;;;4990515;28;20425;-69
2023/11/30 04:01:47;;;;;;;9.00;3.23;;;;;0.60;95654.00;;;;4985238;28;20951;-70
2023/11/30 04:04:40;;;;;;;8.03;2.90;;;;;0.20;95640.00;;;;4986748;28;20418;-70
2023/11/30 04:07:29;;;;;;;5.53;2.20;;;;;0.50;95624.00;;;;4979703;28;20430;-69
2023/11/30 04:10:18;;;;;;;19.40;6.70;;;;;0.60;95612.00;;;;4977410;28;20418;-68
2023/11/30 04:13:07;;;;;;;7.23;2.70;;;;;0.60;95603.00;;;;4982197;28;20473;-70
2023/11/30 04:15:56;;;;;;;5.70;2.17;;;;;0.60;95613.00;;;;4981164;28;20458;-70
2023/11/30 04:18:45;;;;;;;10.97;3.87;;;;;0.30;95605.00;;;;4978454;28;20431;-70
2023/11/30 04:21:36;;;;;;;5.70;2.23;;;;;-0.20;95600.00;;;;4976043;28;20427;-69
2023/11/30 04:24:25;;;;;;;11.47;4.13;;;;;-0.30;95601.00;;;;4983559;28;20437;-69
2023/11/30 04:27:14;;;;;;;12.97;4.47;;;;;-0.10;95613.00;;;;4981229;28;20446;-69
2023/11/30 04:30:03;;;;;;;7.60;2.93;;;;;0.00;95616.00;;;;4983472;28;20958;-69
2023/11/30 04:32:52;;;;;;;5.43;2.13;;;;;0.00;95611.00;;;;4980085;28;20841;-70
2023/11/30 04:35:41;;;;;;;8.33;3.07;;;;;0.30;95618.00;;;;4978633;28;20453;-69
2023/11/30 04:38:31;;;;;;;7.17;2.73;;;;;0.30;95600.00;;;;4976315;28;20800;-69
2023/11/30 04:41:20;;;;;;;12.27;4.40;;;;;0.30;95593.00;;;;4977762;28;20450;-70
2023/11/30 04:44:09;;;;;;;9.50;3.43;;;;;0.10;95568.00;;;;4980558;28;20426;-69
2023/11/30 04:46:58;;;;;;;7.17;2.57;;;;;0.30;95580.00;;;;4975747;28;20450;-69
2023/11/30 04:49:47;;;;;;;7.23;2.60;;;;;0.10;95587.00;;;;4979754;28;20426;-69
2023/11/30 04:52:36;;;;;;;5.97;2.37;;;;;0.10;95580.00;;;;4981653;28;20442;-69
2023/11/30 04:55:26;;;;;;;8.10;3.17;;;;;-0.10;95574.00;;;;4984911;28;20446;-69
2023/11/30 04:58:15;;;;;;;12.87;4.40;;;;;0.00;95578.00;;;;4986948;28;20430;-69
2023/11/30 05:01:04;;;;;;;6.87;2.63;;;;;0.10;95575.00;;;;4975601;28;20431;-69
2023/11/30 05:03:55;;;;;;;6.63;2.57;;;;;0.30;95587.00;;;;4978053;28;20427;-70
2023/11/30 05:06:44;;;;;;;9.57;3.17;;;;;0.10;95592.00;;;;5006891;23;20558;-68
2023/11/30 05:09:33;;;;;;;9.63;3.20;;;;;-0.30;95572.00;;;;5005069;28;20432;-68
2023/11/30 05:12:24;;;;;;;15.13;4.63;;;;;0.00;95590.00;;;;4999650;28;20957;-68
2023/11/30 05:15:13;;;;;;;22.97;6.73;;;;;0.10;95588.00;;;;5006456;28;20440;-69
2023/11/30 05:18:02;;;;;;;8.70;2.83;;;;;0.00;95589.00;;;;4987501;28;20931;-68
2023/11/30 05:20:51;;;;;;;7.10;2.40;;;;;0.50;95584.00;;;;4985665;28;20471;-69
2023/11/30 05:23:40;;;;;;;9.63;3.17;;;;;0.50;95602.00;;;;4983512;28;20792;-69
2023/11/30 05:26:29;;;;;;;9.30;2.97;;;;;0.70;95602.00;;;;4981447;28;20966;-69
2023/11/30 05:29:19;;;;;;;15.30;4.73;;;;;0.60;95602.00;;;;4988497;28;20426;-68
2023/11/30 05:32:09;;;;;;;9.77;3.13;;;;;0.40;95592.00;;;;4994462;28;20456;-69
2023/11/30 05:34:57;;;;;;;8.93;2.90;;;;;0.80;95584.00;;;;4989841;28;20470;-69
2023/11/30 05:37:47;;;;;;;8.67;2.80;;;;;0.50;95588.00;;;;4996715;28;20441;-68
2023/11/30 05:40:36;;;;;;;7.57;2.53;;;;;0.30;95576.00;;;;4987967;28;20433;-68
2023/11/30 05:43:25;;;;;;;15.13;4.67;;;;;0.30;95578.00;;;;4985340;28;20449;-68
2023/11/30 05:46:15;;;;;;;16.67;5.03;;;;;0.40;95600.00;;;;4986755;28;20932;-68
2023/11/30 05:49:04;;;;;;;13.80;4.17;;;;;0.20;95592.00;;;;4984626;28;20462;-68
2023/11/30 05:51:53;;;;;;;11.87;3.73;;;;;0.30;95583.00;;;;4987237;28;20438;-68
2023/11/30 05:54:42;;;;;;;8.47;2.87;;;;;0.10;95583.00;;;;4983245;28;20469;-68
2023/11/30 05:57:31;;;;;;;8.10;2.67;;;;;0.20;95598.00;;;;4981935;28;20445;-68
2023/11/30 06:00:21;;;;;;;16.57;5.13;;;;;0.60;95601.00;;;;4987806;28;20472;-68
2023/11/30 06:03:12;;;;;;;16.70;5.10;;;;;0.70;95597.00;;;;4985745;28;20438;-68
2023/11/30 06:06:01;;;;;;;7.37;2.47;;;;;0.70;95584.00;;;;4988528;28;20446;-68
2023/11/30 06:08:50;;;;;;;13.67;4.23;;;;;0.50;95580.00;;;;4985928;28;20445;-69
2023/11/30 06:11:39;;;;;;;12.40;3.93;;;;;0.20;95580.00;;;;4986666;28;20465;-68
2023/11/30 06:14:29;;;;;;;13.97;4.60;;;;;-0.40;95576.00;;;;4987068;28;20462;-68
2023/11/30 06:17:18;;;;;;;13.47;4.17;;;;;0.20;95563.00;;;;4987843;28;20457;-68
2023/11/30 06:20:12;;;;;;;10.20;3.17;;;;;0.50;95598.00;;;;4986556;28;20429;-68
2023/11/30 06:23:01;;;;;;;8.63;2.87;;;;;0.50;95588.00;;;;4987729;28;20808;-68
2023/11/30 06:25:50;;;;;;;8.77;3.03;;;;;0.20;95583.00;;;;4984858;28;20425;-68
2023/11/30 06:28:39;;;;;;;11.17;3.37;;;;;0.40;95591.00;;;;4988201;28;20433;-68
2023/11/30 06:31:27;;;;;;;15.80;5.00;;;;;0.50;95599.00;;;;4985816;28;20421;-68
2023/11/30 06:34:16;;;;;;;6.67;2.33;;;;;0.50;95604.00;;;;4984351;28;20480;-68
2023/11/30 06:37:07;;;;;;;8.17;2.73;;;;;0.70;95597.00;;;;4985512;28;20449;-68
2023/11/30 06:39:56;;;;;;;11.10;3.57;;;;;1.00;95609.00;;;;4980800;28;20431;-68
2023/11/30 06:42:45;;;;;;;12.47;3.83;;;;;0.70;95608.00;;;;4985999;28;20452;-68
2023/11/30 06:45:34;;;;;;;12.70;3.87;;;;;0.60;95617.00;;;;4983107;28;20441;-68
2023/11/30 06:48:25;;;;;;;16.10;4.97;;;;;0.70;95617.00;;;;4983894;28;20514;-68
2023/11/30 06:51:13;;;;;;;11.37;3.67;;;;;0.80;95611.00;;;;4986597;28;20982;-68
2023/11/30 06:54:04;;;;;;;11.63;3.53;;;;;0.90;95607.00;;;;4985879;28;20469;-68
2023/11/30 06:56:53;;;;;;;8.17;2.77;;;;;0.80;95609.00;;;;4987406;28;20454;-68
2023/11/30 06:59:43;;;;;;;10.47;3.33;;;;;1.00;95597.00;;;;4987197;28;20427;-68
2023/11/30 07:02:32;;;;;;;8.57;2.77;;;;;1.00;95592.00;;;;4987692;28;20483;-68
2023/11/30 07:05:21;;;;;;;17.40;5.47;;;;;1.00;95604.00;;;;4985859;28;21155;-68
2023/11/30 07:08:11;;;;;;;7.80;2.73;;;;;0.70;95590.00;;;;4986078;28;20820;-68
2023/11/30 07:11:01;;;;;;;8.07;2.67;;;;;0.80;95605.00;;;;4984290;28;20441;-68
2023/11/30 07:13:50;;;;;;;7.23;2.60;;;;;0.70;95605.00;;;;4986127;28;20438;-68
2023/11/30 07:16:39;;;;;;;9.17;2.93;;;;;0.90;95615.00;;;;4982540;28;20561;-69
2023/11/30 07:19:29;;;;;;;22.47;7.00;;;;;0.80;95609.00;;;;4988921;28;20942;-68
2023/11/30 07:22:18;;;;;;;18.13;5.47;;;;;0.90;95604.00;;;;4987707;28;20437;-68
2023/11/30 07:25:08;;;;;;;13.97;4.27;;;;;0.80;95616.00;;;;4989623;28;20440;-68
2023/11/30 07:27:59;;;;;;;8.10;2.70;;;;;1.10;95614.00;;;;4989339;28;20429;-68
2023/11/30 07:30:48;;;;;;;8.63;2.90;;;;;1.30;95615.00;;;;4991353;28;20425;-68
2023/11/30 07:33:37;;;;;;;9.57;3.03;;;;;1.60;95607.00;;;;4992147;28;20938;-68
2023/11/30 07:36:26;;;;;;;17.63;5.37;;;;;1.50;95604.00;;;;4987970;28;20596;-68
2023/11/30 07:39:16;;;;;;;19.10;5.67;;;;;1.60;95608.00;;;;4992938;28;20808;-68
2023/11/30 07:42:06;;;;;;;9.23;3.00;;;;;1.30;95617.00;;;;4993913;28;20438;-68
2023/11/30 07:44:57;;;;;;;12.13;3.90;;;;;1.50;95601.00;;;;4986540;28;20418;-68
2023/11/30 07:47:46;;;;;;;6.17;2.07;;;;;1.70;95605.00;;;;4991299;28;20442;-68
2023/11/30 07:50:35;;;;;;;5.73;2.07;;;;;1.60;95597.00;;;;4989897;28;20430;-68
2023/11/30 07:53:24;;;;;;;13.33;4.27;;;;;1.60;95596.00;;;;4989442;28;20446;-69
2023/11/30 07:56:13;;;;;;;6.10;2.07;;;;;1.70;95611.00;;;;4990298;28;20470;-69
2023/11/30 07:59:02;;;;;;;7.97;2.63;;;;;2.10;95595.00;;;;4989505;28;20438;-69
2023/11/30 08:01:52;;;;;;;14.63;4.37;;;;;2.10;95589.00;;;;4989665;28;20422;-69
2023/11/30 08:04:41;;;;;;;8.73;2.90;;;;;2.10;95587.00;;;;4987242;28;20430;-69
2023/11/30 08:07:30;;;;;;;18.10;5.50;;;;;1.70;95572.00;;;;4991405;28;20925;-69
2023/11/30 08:10:19;;;;;;;23.33;6.97;;;;;1.80;95562.00;;;;4996873;28;20430;-69
2023/11/30 08:13:10;;;;;;;10.00;3.20;;;;;1.70;95542.00;;;;4989534;28;20451;-70
2023/11/30 08:15:59;;;;;;;9.40;2.93;;;;;1.60;95547.00;;;;4986925;28;20482;-69
2023/11/30 08:18:51;;;;;;;13.97;4.20;;;;;1.70;95538.00;;;;4993748;28;20434;-69
2023/11/30 08:21:41;;;;;;;12.67;3.90;;;;;1.60;95547.00;;;;4989925;28;20426;-69
2023/11/30 08:24:30;;;;;;;16.53;5.23;;;;;1.80;95552.00;;;;4988755;28;20418;-69
2023/11/30 08:27:21;;;;;;;22.20;6.43;;;;;2.00;95552.00;;;;4989136;28;20505;-70
2023/11/30 08:30:12;;;;;;;11.43;3.57;;;;;1.90;95546.00;;;;4989267;28;20430;-69
2023/11/30 08:33:03;;;;;;;8.97;3.00;;;;;2.10;95552.00;;;;4987164;28;20932;-69
2023/11/30 08:35:55;;;;;;;8.30;2.70;;;;;2.40;95545.00;;;;4995395;28;20918;-69
2023/11/30 08:38:44;;;;;;;17.83;5.23;;;;;2.20;95541.00;;;;4998047;28;20442;-69
2023/11/30 08:41:33;;;;;;;13.97;4.23;;;;;2.10;95534.00;;;;4993334;28;20468;-69
2023/11/30 08:44:22;;;;;;;17.50;5.17;;;;;1.90;95523.00;;;;4988466;28;20438;-69
2023/11/30 08:47:12;;;;;;;10.97;3.67;;;;;2.10;95531.00;;;;4987905;28;20465;-69
2023/11/30 08:50:02;;;;;;;9.50;3.07;;;;;2.20;95524.00;;;;4987406;28;20812;-68
2023/11/30 08:52:54;;;;;;;8.83;2.83;;;;;2.10;95522.00;;;;4985159;28;20422;-69
2023/11/30 08:55:45;;;;;;;12.63;3.90;;;;;2.20;95517.00;;;;4988670;28;20477;-69
2023/11/30 08:58:34;;;;;;;9.77;3.03;;;;;2.30;95526.00;;;;4989577;28;20418;-69
2023/11/30 09:01:23;;;;;;;21.20;6.23;;;;;2.40;95522.00;;;;4983507;28;20434;-69
2023/11/30 09:04:13;;;;;;;10.63;3.23;;;;;2.50;95521.00;;;;4986128;28;20442;-69
2023/11/30 09:07:02;;;;;;;11.20;3.50;;;;;2.50;95530.00;;;;4986866;28;20469;-69
2023/11/30 09:09:53;;;;;;;14.53;4.50;;;;;2.70;95534.00;;;;4987792;28;20989;-69
2023/11/30 09:12:42;;;;;;;10.23;3.40;;;;;2.90;95524.00;;;;4987894;28;20422;-69
2023/11/30 09:15:31;;;;;;;15.93;4.90;;;;;3.10;95526.00;;;;4985971;28;20462;-69
2023/11/30 09:18:21;;;;;;;14.03;4.47;;;;;2.90;95530.00;;;;4985212;28;20434;-69
2023/11/30 09:21:10;;;;;;;10.97;3.30;;;;;2.50;95518.00;;;;4988821;28;20430;-69
2023/11/30 09:24:01;;;;;;;10.17;3.20;;;;;2.90;95504.00;;;;4985278;28;20448;-69
2023/11/30 09:26:54;;;;;;;7.83;2.63;;;;;3.10;95499.00;;;;4986203;28;20442;-68
2023/11/30 09:29:43;;;;;;;11.33;3.60;;;;;2.90;95491.00;;;;4988358;28;20442;-69
2023/11/30 09:32:31;;;;;;;20.27;6.07;;;;;3.30;95500.00;;;;4983619;28;20429;-69
2023/11/30 09:35:20;;;;;;;22.63;6.53;;;;;3.50;95482.00;;;;4987652;28;20474;-69
2023/11/30 09:38:09;;;;;;;9.97;3.13;;;;;3.70;95498.00;;;;4986232;28;20455;-69
2023/11/30 09:41:01;;;;;;;8.50;2.87;;;;;3.80;95495.00;;;;4981984;28;20461;-69
2023/11/30 09:43:52;;;;;;;9.53;2.90;;;;;4.00;95493.00;;;;4988571;28;20430;-69
2023/11/30 09:46:42;;;;;;;12.20;3.67;;;;;4.30;95491.00;;;;4985019;28;20463;-69
2023/11/30 09:49:31;;;;;;;17.47;5.37;;;;;4.20;95494.00;;;;4992121;28;20430;-69
2023/11/30 09:52:21;;;;;;;20.30;5.90;;;;;3.60;95482.00;;;;4994771;28;20438;-69
2023/11/30 09:55:10;;;;;;;17.40;5.00;;;;;4.00;95484.00;;;;4993969;28;20607;-69
2023/11/30 09:58:00;;;;;;;9.40;3.00;;;;;4.00;95472.00;;;;4985520;28;20439;-69
2023/11/30 10:00:50;;;;;;;6.90;2.23;;;;;4.00;95471.00;;;;4998880;28;20437;-69
2023/11/30 10:03:40;;;;;;;8.47;2.60;;;;;3.90;95466.00;;;;4993713;28;20914;-69
2023/11/30 10:06:29;;;;;;;15.50;4.57;;;;;3.90;95463.00;;;;4986712;28;20477;-69
2023/11/30 10:09:18;;;;;;;20.43;5.87;;;;;4.00;95475.00;;;;4988476;28;20446;-69
2023/11/30 10:12:07;;;;;;;11.70;3.70;;;;;3.60;95463.00;;;;4993931;28;20457;-68
2023/11/30 10:15:06;;;;;;;6.80;2.27;;;;;3.80;95481.00;;;;4985655;28;20605;-68
2023/11/30 10:17:58;;;;;;;15.67;4.67;;;;;4.10;95468.00;;;;4985416;28;20237;-68
2023/11/30 10:20:47;;;;;;;14.03;4.23;;;;;4.30;95462.00;;;;4996381;28;20434;-69
2023/11/30 10:23:36;;;;;;;7.93;2.63;;;;;4.40;95450.00;;;;4990718;28;20437;-69
2023/11/30 10:26:26;;;;;;;25.03;7.13;;;;;4.50;95446.00;;;;4993247;28;20893;-69
2023/11/30 10:29:17;;;;;;;9.50;3.00;;;;;4.60;95442.00;;;;4989847;28;20211;-68
2023/11/30 10:32:08;;;;;;;12.30;3.77;;;;;4.60;95434.00;;;;4991809;28;20446;-69
2023/11/30 10:35:02;;;;;;;10.93;3.30;;;;;4.70;95427.00;;;;4985648;28;20636;-68
2023/11/30 10:37:52;;;;;;;9.80;2.97;;;;;4.90;95420.00;;;;4985374;28;20225;-69
2023/11/30 10:40:41;;;;;;;19.53;5.60;;;;;4.80;95421.00;;;;4980777;28;20454;-69
2023/11/30 10:43:33;;;;;;;23.77;6.90;;;;;4.80;95418.00;;;;4981582;28;20438;-68
2023/11/30 10:46:23;;;;;;;24.90;6.97;;;;;5.10;95418.00;;;;4981796;28;20269;-69
2023/11/30 10:49:13;;;;;;;6.37;2.00;;;;;4.90;95412.00;;;;4988379;28;20214;-69
2023/11/30 10:52:04;;;;;;;9.80;3.07;;;;;4.90;95414.00;;;;4990672;28;20446;-68
2023/11/30 10:54:59;;;;;;;10.03;3.07;;;;;4.70;95404.00;;;;4990153;28;20199;-68
2023/11/30 10:57:48;;;;;;;12.07;3.53;;;;;4.50;95394.00;;;;4991414;28;20226;-69
2023/11/30 11:00:39;;;;;;;11.40;3.40;;;;;5.00;95390.00;;;;4995116;28;20210;-68
2023/11/30 11:03:29;;;;;;;27.90;7.77;;;;;4.90;95395.00;;;;4992863;28;20224;-68
2023/11/30 11:06:18;;;;;;;19.20;5.37;;;;;4.90;95388.00;;;;4995643;28;20237;-69
2023/11/30 11:09:11;;;;;;;7.40;2.43;;;;;4.80;95397.00;;;;4998314;28;20209;-69
2023/11/30 11:12:03;;;;;;;14.60;4.23;;;;;4.80;95383.00;;;;4994557;28;20229;-69
2023/11/30 11:15:08;;;;;;;10.93;3.27;;;;;4.60;95373.00;;;;4992418;28;20828;-70
2023/11/30 11:18:03;;;;;;;14.20;4.20;;;;;4.70;95381.00;;;;4988620;28;20195;-69
2023/11/30 11:20:52;;;;;;;11.93;3.63;;;;;5.00;95371.00;;;;4987631;28;20207;-69
2023/11/30 11:23:41;;;;;;;8.50;2.70;;;;;4.80;95369.00;;;;4991301;28;20219;-69
2023/11/30 11:26:44;;;;;;;21.00;6.03;;;;;4.20;95363.00;;;;4990396;28;20449;-69
2023/11/30 11:29:33;;;;;;;21.77;6.20;;;;;4.00;95356.00;;;;4984693;28;20211;-69
2023/11/30 11:32:26;;;;;;;19.20;5.67;;;;;4.30;95358.00;;;;4987890;28;20264;-68
2023/11/30 11:35:16;;;;;;;11.20;3.40;;;;;4.30;95357.00;;;;4989608;28;20969;-68
2023/11/30 11:38:06;;;;;;;8.30;2.77;;;;;4.10;95348.00;;;;4990183;28;20500;-69
2023/11/30 11:40:55;;;;;;;10.00;3.03;;;;;4.40;95349.00;;;;4990077;28;20275;-69
2023/11/30 11:43:48;;;;;;;9.37;2.93;;;;;4.50;95336.00;;;;4995347;28;20210;-67
2023/11/30 11:46:37;;;;;;;11.07;3.33;;;;;4.60;95339.00;;;;4990220;28;20453;-68
2023/11/30 11:49:26;;;;;;;20.10;5.70;;;;;4.70;95334.00;;;;4989570;28;20218;-68
2023/11/30 11:52:20;;;;;;;9.63;2.97;;;;;5.00;95324.00;;;;4981384;28;20292;-68
2023/11/30 11:55:11;;;;;;;14.23;4.10;;;;;4.80;95334.00;;;;4991048;28;20434;-69
2023/11/30 11:58:01;;;;;;;7.00;2.23;;;;;5.00;95319.00;;;;4994592;28;20466;-69
2023/11/30 12:00:57;;;;;;;7.87;2.50;;;;;5.10;95314.00;;;;4986294;28;20581;-68
2023/11/30 12:03:49;;;;;;;11.17;3.40;;;;;5.10;95302.00;;;;4983138;28;20438;-68
2023/11/30 12:06:38;;;;;;;12.63;3.80;;;;;5.00;95312.00;;;;4984218;28;20230;-69
2023/11/30 12:09:27;;;;;;;17.80;5.20;;;;;4.90;95312.00;;;;4989111;28;20207;-68
2023/11/30 12:12:16;;;;;;;12.00;3.53;;;;;5.00;95303.00;;;;4988529;28;20593;-68
2023/11/30 12:15:06;;;;;;;13.47;3.83;;;;;5.10;95297.00;;;;4990901;28;20222;-68
2023/11/30 12:17:57;;;;;;;9.70;2.90;;;;;5.20;95293.00;;;;4987623;28;20303;-69
2023/11/30 12:20:47;;;;;;;13.33;3.83;;;;;5.20;95295.00;;;;4986619;28;21013;-69
2023/11/30 12:23:36;;;;;;;12.37;3.70;;;;;5.20;95279.00;;;;4988520;28;20203;-68
2023/11/30 12:26:25;;;;;;;13.77;4.03;;;;;5.20;95287.00;;;;4984910;28;20230;-69
2023/11/30 12:29:14;;;;;;;8.10;2.50;;;;;5.30;95285.00;;;;4988430;28;20217;-69
2023/11/30 12:32:03;;;;;;;9.40;2.80;;;;;5.10;95273.00;;;;4987426;28;20206;-69
2023/11/30 12:34:56;;;;;;;11.23;3.40;;;;;5.30;95266.00;;;;4984460;28;20207;-68
2023/11/30 12:37:46;;;;;;;13.03;3.80;;;;;5.40;95278.00;;;;4986289;28;20260;-68
2023/11/30 12:40:35;;;;;;;13.40;4.03;;;;;5.40;95281.00;;;;4988012;28;20207;-68
2023/11/30 12:43:24;;;;;;;22.07;6.13;;;;;5.30;95271.00;;;;4987781;28;20212;-69
2023/11/30 12:46:14;;;;;;;7.60;2.40;;;;;5.50;95280.00;;;;4987514;28;20229;-69
2023/11/30 12:49:04;;;;;;;11.90;3.53;;;;;5.50;95272.00;;;;4987886;28;20211;-68
2023/11/30 12:51:54;;;;;;;20.03;5.77;;;;;5.40;95257.00;;;;4988337;28;20210;-69
2023/11/30 12:54:44;;;;;;;11.13;3.33;;;;;5.40;95257.00;;;;4988574;28;20203;-69
2023/11/30 12:57:34;;;;;;;27.40;7.73;;;;;5.40;95253.00;;;;4982669;28;20754;-69
2023/11/30 13:00:23;;;;;;;21.63;6.17;;;;;5.30;95276.00;;;;4986635;28;20917;-69
2023/11/30 13:03:12;;;;;;;11.90;3.47;;;;;5.30;95265.00;;;;4988632;28;20232;-68
2023/11/30 13:06:02;;;;;;;10.53;3.10;;;;;5.30;95261.00;;;;4986212;28;20226;-68
2023/11/30 13:08:52;;;;;;;16.27;4.73;;;;;5.30;95247.00;;;;4989680;28;20558;-68
2023/11/30 13:11:41;;;;;;;17.70;5.20;;;;;5.30;95251.00;;;;4985642;28;20202;-68
2023/11/30 13:14:31;;;;;;;18.07;5.23;;;;;5.30;95248.00;;;;4988566;28;20203;-68
2023/11/30 13:17:20;;;;;;;9.97;3.00;;;;;5.20;95245.00;;;;4988163;28;20227;-68
2023/11/30 13:20:12;;;;;;;10.33;3.10;;;;;5.20;95247.00;;;;4982704;28;20206;-68
2023/11/30 13:23:01;;;;;;;6.13;2.13;;;;;5.20;95238.00;;;;4988737;28;20334;-68
2023/11/30 13:25:52;;;;;;;6.47;2.10;;;;;5.30;95245.00;;;;4990539;28;20211;-68
2023/11/30 13:28:41;;;;;;;17.77;5.03;;;;;5.30;95235.00;;;;4988266;28;20849;-67
2023/11/30 13:31:31;;;;;;;22.33;6.30;;;;;5.30;95233.00;;;;4983380;28;20199;-68
2023/11/30 13:34:20;;;;;;;18.70;5.33;;;;;5.20;95235.00;;;;4986293;28;20211;-68
2023/11/30 13:37:09;;;;;;;13.00;3.80;;;;;4.80;95213.00;;;;4983764;28;20234;-68
2023/11/30 13:39:58;;;;;;;10.17;3.10;;;;;4.80;95211.00;;;;4985060;28;20206;-68
2023/11/30 13:42:48;;;;;;;13.33;3.93;;;;;4.70;95216.00;;;;4988447;28;20202;-68
2023/11/30 13:45:38;;;;;;;11.33;3.43;;;;;5.00;95217.00;;;;4986288;28;20217;-68
2023/11/30 13:48:27;;;;;;;20.93;5.87;;;;;5.10;95217.00;;;;4983052;28;20683;-68
2023/11/30 13:51:16;;;;;;;11.20;3.37;;;;;5.20;95217.00;;;;4987435;28;20254;-68
2023/11/30 13:54:05;;;;;;;14.83;4.47;;;;;5.20;95208.00;;;;4982878;28;21576;-68
2023/11/30 13:56:55;;;;;;;7.80;2.60;;;;;5.20;95208.00;;;;4983653;28;20237;-68
2023/11/30 13:59:45;;;;;;;20.00;5.63;;;;;5.20;95202.00;;;;4986251;28;20613;-68
2023/11/30 14:02:37;;;;;;;25.27;7.23;;;;;5.20;95206.00;;;;4985879;28;20206;-69
2023/11/30 14:05:27;;;;;;;10.43;3.27;;;;;5.10;95203.00;;;;4987255;28;20205;-69
2023/11/30 14:08:16;;;;;;;10.60;3.23;;;;;5.00;95208.00;;;;4989252;28;20209;-69
2023/11/30 14:11:09;;;;;;;20.53;5.83;;;;;5.20;95194.00;;;;4988671;28;20238;-69
2023/11/30 14:13:58;;;;;;;8.00;2.50;;;;;5.20;95194.00;;;;4986057;28;20221;-69